createdAt,value
2023-05-15T00:02:16.943Z,15.72
2023-05-15T00:04:45.799Z,16.09
2023-05-15T00:07:16.205Z,15.99
2023-05-15T00:09:44.583Z,15.96
2023-05-15T00:12:13.481Z,16.27
2023-05-15T00:14:42.007Z,16.18
2023-05-15T00:17:11.056Z,16.28
2023-05-15T00:19:39.732Z,16.10
2023-05-15T00:22:08.503Z,16.11
2023-05-15T00:24:38.401Z,15.97
2023-05-15T00:27:07.547Z,15.83
2023-05-15T00:29:35.912Z,15.53
2023-05-15T00:32:05.184Z,16.01
2023-05-15T00:34:33.444Z,16.16
2023-05-15T00:37:02.199Z,16.25
2023-05-15T00:39:30.480Z,16.05
2023-05-15T00:42:02.235Z,16.53
2023-05-15T00:44:31.631Z,16.25
2023-05-15T00:47:00.823Z,16.37
2023-05-15T00:49:30.928Z,16.30
2023-05-15T00:52:02.115Z,15.81
2023-05-15T00:54:31.291Z,15.59
2023-05-15T00:57:01.654Z,16.29
2023-05-15T00:59:32.054Z,16.54
2023-05-15T01:02:01.453Z,16.08
2023-05-15T01:04:30.322Z,16.00
2023-05-15T01:06:59.001Z,15.63
2023-05-15T01:09:29.105Z,15.70
2023-05-15T01:12:00.685Z,16.11
2023-05-15T01:14:28.970Z,15.79
2023-05-15T01:16:57.646Z,16.25
2023-05-15T01:19:26.153Z,16.41
2023-05-15T01:22:21.334Z,17.09
2023-05-15T01:25:16.130Z,17.07
2023-05-15T01:27:50.229Z,17.24
2023-05-15T01:30:23.455Z,16.22
2023-05-15T01:32:57.135Z,14.90
2023-05-15T01:35:30.244Z,14.61
2023-05-15T01:38:05.505Z,14.46
2023-05-15T01:40:33.945Z,13.87
2023-05-15T01:43:10.140Z,14.27
2023-05-15T01:45:39.133Z,13.56
2023-05-15T01:48:10.014Z,13.59
2023-05-15T01:50:39.779Z,13.67
2023-05-15T01:53:09.844Z,13.45
2023-05-15T01:55:39.074Z,13.72
2023-05-15T01:58:10.307Z,13.96
2023-05-15T02:00:39.176Z,13.86
2023-05-15T02:03:08.400Z,13.88
2023-05-15T02:05:37.008Z,13.19
2023-05-15T02:08:06.467Z,13.91
2023-05-15T02:10:35.071Z,13.47
2023-05-15T02:13:03.832Z,13.35
2023-05-15T02:15:33.516Z,13.97
2023-05-15T02:18:02.367Z,13.56
2023-05-15T02:20:30.741Z,13.84
2023-05-15T02:22:59.585Z,13.52
2023-05-15T02:25:36.476Z,13.99
2023-05-15T02:28:06.706Z,13.97
2023-05-15T02:30:45.264Z,14.17
2023-05-15T02:33:17.855Z,14.28
2023-05-15T02:35:50.650Z,14.65
2023-05-15T02:38:22.172Z,14.43
2023-05-15T02:40:51.781Z,14.35
2023-05-15T02:43:21.117Z,14.36
2023-05-15T02:45:51.168Z,14.80
2023-05-15T02:48:19.950Z,14.56
2023-05-15T02:50:48.264Z,14.60
2023-05-15T02:53:16.863Z,14.55
2023-05-15T02:55:45.162Z,14.07
2023-05-15T02:58:13.859Z,14.32
2023-05-15T03:00:42.394Z,14.18
2023-05-15T03:03:12.254Z,14.57
2023-05-15T03:05:40.953Z,14.34
2023-05-15T03:08:09.832Z,13.83
2023-05-15T03:10:38.434Z,14.19
2023-05-15T03:13:07.058Z,13.94
2023-05-15T03:15:35.444Z,13.95
2023-05-15T03:18:04.428Z,13.89
2023-05-15T03:20:34.039Z,14.28
2023-05-15T03:23:02.889Z,14.12
2023-05-15T03:25:31.444Z,14.23
2023-05-15T03:27:59.978Z,14.10
2023-05-15T03:30:28.363Z,14.25
2023-05-15T03:32:57.712Z,14.38
2023-05-15T03:35:27.210Z,14.34
2023-05-15T03:37:57.257Z,14.66
2023-05-15T03:40:25.513Z,14.30
2023-05-15T03:42:54.424Z,14.22
2023-05-15T03:45:23.079Z,14.16
2023-05-15T03:47:52.412Z,14.13
2023-05-15T03:50:20.828Z,14.03
2023-05-15T03:52:49.432Z,14.13
2023-05-15T03:55:20.348Z,14.48
2023-05-15T03:57:48.905Z,14.03
2023-05-15T04:00:19.172Z,14.17
2023-05-15T04:02:47.961Z,13.71
2023-05-15T04:05:17.172Z,14.12
2023-05-15T04:07:46.069Z,13.93
2023-05-15T04:10:14.820Z,14.21
2023-05-15T04:12:45.009Z,14.55
2023-05-15T04:15:17.490Z,14.76
2023-05-15T04:17:47.005Z,14.32
2023-05-15T04:20:16.601Z,14.06
2023-05-15T04:22:45.946Z,14.25
2023-05-15T04:25:16.484Z,14.42
2023-05-15T04:27:46.995Z,14.59
2023-05-15T04:30:15.866Z,14.36
2023-05-15T04:32:44.682Z,14.03
2023-05-15T04:35:14.198Z,14.48
2023-05-15T04:37:45.856Z,14.52
2023-05-15T04:40:16.454Z,14.45
2023-05-15T04:42:47.177Z,14.44
2023-05-15T04:45:15.943Z,14.04
2023-05-15T04:47:44.846Z,14.11
2023-05-15T04:50:13.556Z,14.69
2023-05-15T04:52:43.136Z,14.68
2023-05-15T04:55:11.811Z,14.49
2023-05-15T04:57:40.840Z,14.82
2023-05-15T05:00:12.588Z,15.50
2023-05-15T05:02:41.687Z,15.16
2023-05-15T05:05:10.859Z,15.43
2023-05-15T05:07:39.450Z,15.40
2023-05-15T05:10:09.214Z,15.86
2023-05-15T05:12:38.132Z,15.67
2023-05-15T05:15:07.406Z,15.73
2023-05-15T05:17:37.682Z,15.96
2023-05-15T05:20:11.853Z,15.41
2023-05-15T05:22:42.698Z,15.48
2023-05-15T05:25:11.678Z,15.71
2023-05-15T05:27:40.641Z,15.64
2023-05-15T05:30:10.411Z,15.64
2023-05-15T05:32:40.817Z,15.90
2023-05-15T05:35:10.637Z,15.82
2023-05-15T05:37:41.222Z,15.40
2023-05-15T05:40:11.282Z,15.45
2023-05-15T05:42:39.969Z,15.34
2023-05-15T05:45:09.476Z,15.71
2023-05-15T05:47:38.567Z,15.48
2023-05-15T05:50:09.666Z,15.66
2023-05-15T05:52:38.640Z,15.31
2023-05-15T05:55:08.171Z,15.57
2023-05-15T05:57:36.851Z,15.00
2023-05-15T06:00:06.734Z,15.37
2023-05-15T06:02:36.083Z,15.09
2023-05-15T06:05:04.901Z,14.93
2023-05-15T06:07:35.280Z,15.64
2023-05-15T06:10:04.309Z,15.27
2023-05-15T06:12:33.061Z,15.49
2023-05-15T06:15:01.665Z,15.45
2023-05-15T06:17:30.576Z,15.58
2023-05-15T06:19:58.933Z,15.67
2023-05-15T06:22:27.726Z,15.80
2023-05-15T06:24:57.694Z,16.31
2023-05-15T06:27:26.577Z,15.88
2023-05-15T06:29:54.847Z,15.88
2023-05-15T06:32:24.020Z,15.91
2023-05-15T06:34:52.788Z,16.20
2023-05-15T06:37:21.657Z,16.64
2023-05-15T06:39:50.053Z,16.62
2023-05-15T06:42:20.301Z,17.01
2023-05-15T06:44:49.896Z,16.65
2023-05-15T06:47:18.501Z,16.54
2023-05-15T06:49:46.861Z,16.46
2023-05-15T06:52:16.724Z,16.45
2023-05-15T06:54:45.275Z,16.51
2023-05-15T06:57:14.301Z,16.55
2023-05-15T06:59:44.175Z,16.84
2023-05-15T07:02:13.272Z,16.39
2023-05-15T07:04:41.682Z,16.37
2023-05-15T07:07:10.327Z,16.43
2023-05-15T07:09:39.553Z,16.42
2023-05-15T07:12:08.945Z,16.49
2023-05-15T07:14:37.516Z,16.50
2023-05-15T07:17:07.729Z,16.98
2023-05-15T07:19:36.132Z,16.53
2023-05-15T07:22:04.858Z,16.56
2023-05-15T07:24:33.126Z,16.63
2023-05-15T07:27:01.905Z,16.80
2023-05-15T07:29:30.169Z,16.54
2023-05-15T07:31:58.722Z,16.48
2023-05-15T07:34:28.853Z,16.89
2023-05-15T07:36:57.404Z,16.52
2023-05-15T07:39:25.907Z,16.66
2023-05-15T07:41:54.606Z,16.61
2023-05-15T07:44:23.245Z,16.79
2023-05-15T07:46:51.907Z,16.90
2023-05-15T07:49:20.463Z,16.67
2023-05-15T07:51:50.468Z,16.97
2023-05-15T07:54:18.628Z,16.35
2023-05-15T07:56:47.151Z,16.20
2023-05-15T07:59:15.615Z,16.55
2023-05-15T08:01:44.105Z,16.50
2023-05-15T08:04:13.617Z,16.67
2023-05-15T08:06:43.824Z,16.45
2023-05-15T08:09:14.657Z,16.88
2023-05-15T08:11:43.362Z,16.64
2023-05-15T08:14:13.679Z,16.78
2023-05-15T08:16:42.458Z,16.36
2023-05-15T08:19:12.524Z,16.95
2023-05-15T08:21:41.365Z,16.44
2023-05-15T08:24:10.419Z,16.47
2023-05-15T08:26:40.503Z,16.61
2023-05-15T08:29:08.926Z,16.51
2023-05-15T08:31:37.586Z,16.52
2023-05-15T08:34:06.249Z,16.68
2023-05-15T08:36:35.924Z,16.65
2023-05-15T08:39:04.968Z,16.77
2023-05-15T08:44:10.169Z,17.62
2023-05-15T08:46:39.129Z,17.44
2023-05-15T08:49:13.523Z,18.32
2023-05-15T08:51:42.610Z,18.20
2023-05-15T08:54:12.019Z,18.48
2023-05-15T08:56:40.747Z,18.27
2023-05-15T08:59:10.847Z,18.78
2023-05-15T09:01:39.759Z,18.72
2023-05-15T09:04:08.364Z,18.94
2023-05-15T09:06:37.446Z,19.25
2023-05-15T09:09:06.256Z,19.29
2023-05-15T09:11:35.400Z,19.40
2023-05-15T09:14:05.057Z,19.38
2023-05-15T09:16:35.353Z,19.75
2023-05-15T09:19:04.252Z,19.74
2023-05-15T09:21:33.373Z,19.50
2023-05-15T09:24:18.357Z,20.25
2023-05-15T09:26:48.382Z,19.85
2023-05-15T09:29:19.163Z,19.89
2023-05-15T09:31:49.417Z,20.66
2023-05-15T09:34:17.924Z,19.74
2023-05-15T09:36:46.728Z,19.60
2023-05-15T09:39:15.332Z,19.65
2023-05-15T09:41:45.950Z,19.59
2023-05-15T09:44:22.128Z,20.17
2023-05-15T09:46:52.219Z,19.56
2023-05-15T09:49:20.845Z,19.20
2023-05-15T09:51:50.792Z,19.11
2023-05-15T09:54:20.573Z,19.13
2023-05-15T09:56:49.519Z,18.87
2023-05-15T09:59:21.761Z,19.17
2023-05-15T10:01:52.848Z,19.31
2023-05-15T10:04:21.477Z,18.91
2023-05-15T10:06:50.359Z,19.04
2023-05-15T10:09:20.137Z,19.35
2023-05-15T10:11:53.333Z,19.63
2023-05-15T10:14:23.602Z,19.66
2023-05-15T10:16:54.043Z,20.05
2023-05-15T10:19:24.776Z,20.44
2023-05-15T10:21:54.580Z,20.56
2023-05-15T10:24:23.948Z,20.39
2023-05-15T10:26:52.792Z,20.20
2023-05-15T10:29:25.472Z,20.63
2023-05-15T10:31:55.721Z,20.62
2023-05-15T10:34:24.138Z,20.03
2023-05-15T10:36:53.269Z,19.91
2023-05-15T10:39:22.142Z,19.81
2023-05-15T10:41:51.829Z,19.32
2023-05-15T10:44:20.940Z,19.10
2023-05-15T10:46:50.136Z,18.79
2023-05-15T10:49:19.926Z,19.09
2023-05-15T10:51:48.627Z,18.70
2023-05-15T10:54:17.480Z,18.73
2023-05-15T10:56:46.254Z,18.97
2023-05-15T10:59:14.801Z,19.03
2023-05-15T11:01:44.103Z,19.54
2023-05-15T11:04:14.241Z,19.98
2023-05-15T11:06:45.370Z,20.46
2023-05-15T11:09:39.622Z,21.86
2023-05-15T11:12:10.132Z,24.34
2023-05-15T11:14:41.021Z,26.38
2023-05-15T11:17:11.005Z,26.73
2023-05-15T11:19:58.050Z,26.12
2023-05-15T11:22:33.591Z,25.23
2023-05-15T11:25:03.834Z,24.13
2023-05-15T11:27:33.878Z,23.47
2023-05-15T11:30:11.170Z,23.26
2023-05-15T11:32:58.559Z,23.15
2023-05-15T11:35:29.719Z,23.04
2023-05-15T11:38:00.684Z,23.58
2023-05-15T11:40:31.224Z,23.82
2023-05-15T11:43:07.715Z,23.97
2023-05-15T11:45:38.436Z,23.91
2023-05-15T11:48:08.893Z,23.49
2023-05-15T11:50:37.354Z,22.72
2023-05-15T11:53:09.275Z,22.62
2023-05-15T11:55:40.333Z,22.38
2023-05-15T11:58:13.272Z,22.26
2023-05-15T12:00:42.140Z,21.59
2023-05-15T12:03:18.213Z,22.06
2023-05-15T12:05:57.487Z,21.06
2023-05-15T12:08:33.507Z,21.30
2023-05-15T12:11:02.353Z,20.70
2023-05-15T12:13:32.098Z,21.08
2023-05-15T12:16:00.626Z,21.17
2023-05-15T12:18:29.383Z,21.90
2023-05-15T12:20:58.253Z,22.26
2023-05-15T12:23:29.003Z,23.22
2023-05-15T12:25:59.968Z,23.34
2023-05-15T12:28:28.396Z,24.02
2023-05-15T12:30:56.923Z,22.86
2023-05-15T12:33:26.402Z,22.92
2023-05-15T12:36:00.832Z,22.73
2023-05-15T12:38:33.972Z,22.56
2023-05-15T12:41:02.199Z,22.12
2023-05-15T12:43:32.737Z,22.65
2023-05-15T12:46:01.380Z,22.02
2023-05-15T12:48:33.909Z,22.26
2023-05-15T12:51:09.637Z,22.66
2023-05-15T12:53:40.437Z,22.73
2023-05-15T12:56:09.286Z,22.30
2023-05-15T12:58:39.474Z,22.02
2023-05-15T13:01:08.059Z,22.17
2023-05-15T13:03:37.235Z,22.80
2023-05-15T13:06:07.250Z,23.13
2023-05-15T13:08:42.707Z,24.16
2023-05-15T13:11:13.525Z,23.98
2023-05-15T13:13:46.495Z,23.86
2023-05-15T13:16:22.333Z,23.71
2023-05-15T13:18:51.298Z,22.93
2023-05-15T13:21:19.792Z,22.88
2023-05-15T13:23:49.974Z,22.81
2023-05-15T13:26:18.495Z,22.50
2023-05-15T13:28:47.307Z,22.53
2023-05-15T13:31:15.693Z,22.55
2023-05-15T13:33:45.907Z,22.37
2023-05-15T13:36:14.164Z,22.81
2023-05-15T13:38:42.929Z,22.95
2023-05-15T13:41:12.920Z,23.39
2023-05-15T13:43:41.614Z,23.12
2023-05-15T13:46:10.124Z,23.60
2023-05-15T13:48:39.223Z,23.94
2023-05-15T13:51:07.763Z,24.28
2023-05-15T13:53:36.374Z,24.17
2023-05-15T13:56:04.794Z,23.97
2023-05-15T13:58:34.816Z,24.51
2023-05-15T14:01:06.207Z,23.94
2023-05-15T14:03:35.323Z,23.80
2023-05-15T14:06:04.278Z,23.91
2023-05-15T14:08:32.924Z,23.77
2023-05-15T14:11:01.313Z,23.93
2023-05-15T14:13:31.896Z,23.82
2023-05-15T14:16:01.605Z,24.28
2023-05-15T14:18:31.982Z,23.74
2023-05-15T14:21:00.538Z,23.99
2023-05-15T14:23:29.354Z,23.79
2023-05-15T14:25:57.640Z,23.61
2023-05-15T14:28:26.196Z,23.64
2023-05-15T14:30:54.957Z,23.57
2023-05-15T14:33:24.969Z,23.96
2023-05-15T14:35:53.470Z,23.37
2023-05-15T14:38:22.060Z,22.91
2023-05-15T14:40:50.659Z,22.85
2023-05-15T14:43:19.194Z,22.48
2023-05-15T14:45:48.064Z,22.42
2023-05-15T14:48:16.616Z,22.49
2023-05-15T14:50:46.425Z,23.11
2023-05-15T14:53:15.121Z,23.02
2023-05-15T14:55:43.495Z,23.09
2023-05-15T14:58:12.131Z,23.08
2023-05-15T15:00:41.061Z,22.85
2023-05-15T15:03:09.989Z,22.49
2023-05-15T15:05:38.436Z,22.67
2023-05-15T15:08:10.092Z,23.17
2023-05-15T15:10:39.758Z,22.83
2023-05-15T15:13:10.493Z,22.72
2023-05-15T15:15:39.059Z,22.66
2023-05-15T15:18:08.142Z,22.71
2023-05-15T15:20:36.472Z,23.04
2023-05-15T15:23:05.210Z,23.26
2023-05-15T15:25:36.110Z,23.86
2023-05-15T15:28:04.967Z,24.45
2023-05-15T15:30:33.319Z,23.29
2023-05-15T15:33:02.291Z,23.23
2023-05-15T15:35:30.895Z,22.59
2023-05-15T15:37:59.645Z,22.60
2023-05-15T15:40:29.860Z,22.51
2023-05-15T15:43:01.882Z,23.07
2023-05-15T15:45:30.423Z,22.88
2023-05-15T15:47:59.259Z,22.83
2023-05-15T15:50:28.082Z,22.63
2023-05-15T15:52:56.709Z,22.46
2023-05-15T15:55:25.189Z,22.37
2023-05-15T15:57:54.035Z,22.51
2023-05-15T16:00:24.348Z,23.01
2023-05-15T16:02:53.601Z,22.28
2023-05-15T16:05:22.534Z,22.55
2023-05-15T16:07:51.292Z,22.31
2023-05-15T16:10:19.714Z,22.25
2023-05-15T16:12:48.396Z,22.13
2023-05-15T16:15:23.035Z,21.54
2023-05-15T16:17:54.926Z,22.01
2023-05-15T16:20:23.831Z,21.54
2023-05-15T16:22:52.744Z,21.30
2023-05-15T16:25:21.344Z,21.39
2023-05-15T16:27:49.929Z,21.18
2023-05-15T16:30:21.445Z,21.63
2023-05-15T16:32:50.402Z,21.03
2023-05-15T16:35:23.457Z,21.22
2023-05-15T16:37:52.188Z,20.85
2023-05-15T16:40:20.582Z,20.73
2023-05-15T16:42:49.164Z,20.95
2023-05-15T16:45:17.579Z,20.88
2023-05-15T16:47:46.792Z,20.63
2023-05-15T16:50:15.691Z,20.45
2023-05-15T16:52:47.757Z,20.71
2023-05-15T16:55:17.967Z,20.64
2023-05-15T16:57:47.373Z,20.57
2023-05-15T17:00:17.190Z,20.73
2023-05-15T17:02:45.876Z,20.43
2023-05-15T17:05:15.265Z,20.49
2023-05-15T17:07:45.686Z,21.02
2023-05-15T17:10:14.538Z,20.74
2023-05-15T17:12:43.178Z,20.41
2023-05-15T17:15:12.295Z,20.21
2023-05-15T17:17:41.039Z,20.07
2023-05-15T17:20:10.623Z,20.18
2023-05-15T17:22:39.218Z,19.85
2023-05-15T17:25:10.047Z,20.07
2023-05-15T17:27:41.585Z,19.58
2023-05-15T17:30:11.337Z,19.73
2023-05-15T17:32:40.637Z,19.54
2023-05-15T17:35:11.838Z,19.70
2023-05-15T17:37:40.600Z,19.50
2023-05-15T17:40:11.328Z,19.82
2023-05-15T17:42:40.056Z,19.57
2023-05-15T17:45:09.344Z,19.59
2023-05-15T17:47:38.159Z,19.34
2023-05-15T17:50:08.152Z,19.60
2023-05-15T17:52:37.430Z,19.43
2023-05-15T17:55:06.711Z,19.26
2023-05-15T17:57:36.821Z,19.66
2023-05-15T18:00:07.336Z,19.33
2023-05-15T18:02:36.214Z,19.20
2023-05-15T18:05:05.426Z,19.48
2023-05-15T18:07:34.250Z,19.26
2023-05-15T18:10:02.636Z,19.22
2023-05-15T18:12:31.275Z,19.04
2023-05-15T18:15:03.895Z,19.45
2023-05-15T18:17:32.535Z,19.03
2023-05-15T18:20:02.004Z,19.21
2023-05-15T18:22:30.983Z,19.48
2023-05-15T18:24:59.217Z,19.40
2023-05-15T18:27:28.312Z,19.52
2023-05-15T18:29:56.762Z,19.63
2023-05-15T18:32:26.766Z,19.89
2023-05-15T18:34:55.103Z,19.61
2023-05-15T18:37:23.565Z,19.64
2023-05-15T18:39:52.180Z,19.68
2023-05-15T18:42:20.927Z,19.81
2023-05-15T18:44:49.507Z,19.68
2023-05-15T18:47:18.347Z,19.45
2023-05-15T18:49:48.097Z,19.73
2023-05-15T18:52:17.786Z,19.20
2023-05-15T18:54:46.146Z,19.10
2023-05-15T18:57:15.413Z,19.02
2023-05-15T18:59:44.539Z,18.99
2023-05-15T19:02:13.525Z,18.65
2023-05-15T19:04:41.823Z,18.65
2023-05-15T19:07:11.750Z,18.79
2023-05-15T19:09:43.113Z,18.91
2023-05-15T19:12:11.627Z,18.43
2023-05-15T19:14:40.023Z,18.44
2023-05-15T19:17:08.719Z,18.43
2023-05-15T19:19:37.002Z,18.30
2023-05-15T19:22:06.333Z,18.33
2023-05-15T19:24:36.050Z,18.55
2023-05-15T19:27:05.983Z,18.04
2023-05-15T19:29:35.105Z,17.86
2023-05-15T19:32:04.033Z,17.65
2023-05-15T19:34:32.751Z,17.73
2023-05-15T19:37:01.355Z,17.45
2023-05-15T19:39:29.777Z,17.56
2023-05-15T19:41:59.822Z,17.69
2023-05-15T19:44:28.186Z,17.38
2023-05-15T19:46:57.115Z,17.28
2023-05-15T19:49:25.372Z,17.24
2023-05-15T19:51:54.442Z,17.36
2023-05-15T19:54:22.764Z,17.03
2023-05-15T19:56:51.452Z,17.01
2023-05-15T19:59:21.278Z,17.30
2023-05-15T20:01:50.631Z,16.93
2023-05-15T20:04:21.018Z,16.94
2023-05-15T20:06:49.840Z,16.79
2023-05-15T20:09:18.356Z,16.81
2023-05-15T20:11:47.110Z,16.55
2023-05-15T20:14:16.003Z,16.60
2023-05-15T20:16:46.363Z,16.77
2023-05-15T20:19:14.974Z,16.49
2023-05-15T20:21:44.065Z,16.47
2023-05-15T20:24:12.498Z,16.37
2023-05-15T20:26:40.972Z,16.50
2023-05-15T20:29:09.353Z,16.40
2023-05-15T20:31:38.203Z,16.34
2023-05-15T20:34:08.542Z,16.67
2023-05-15T20:36:39.110Z,16.28
2023-05-15T20:39:08.638Z,16.25
2023-05-15T20:41:37.700Z,16.12
2023-05-15T20:44:06.160Z,16.13
2023-05-15T20:46:34.990Z,15.96
2023-05-15T20:49:03.463Z,16.12
2023-05-15T20:51:33.476Z,16.37
2023-05-15T20:54:01.895Z,16.05
2023-05-15T20:56:30.704Z,16.15
2023-05-15T20:58:59.950Z,15.80
2023-05-15T21:01:28.660Z,15.83
2023-05-15T21:03:56.843Z,15.79
2023-05-15T21:06:25.700Z,15.81
2023-05-15T21:08:55.426Z,15.98
2023-05-15T21:11:24.076Z,15.83
2023-05-15T21:13:52.531Z,15.68
2023-05-15T21:16:21.299Z,15.71
2023-05-15T21:18:49.635Z,15.81
2023-05-15T21:21:18.357Z,15.84
2023-05-15T21:23:46.633Z,15.75
2023-05-15T21:26:16.782Z,16.09
2023-05-15T21:28:44.988Z,15.78
2023-05-15T21:31:13.645Z,15.72
2023-05-15T21:33:41.923Z,15.66
2023-05-15T21:36:11.001Z,15.84
2023-05-15T21:38:39.355Z,15.69
2023-05-15T21:41:08.211Z,15.73
2023-05-15T21:43:37.701Z,15.83
2023-05-15T21:46:06.507Z,15.65
2023-05-15T21:48:35.041Z,15.71
2023-05-15T21:51:03.792Z,15.43
2023-05-15T21:53:32.173Z,15.59
2023-05-15T21:56:01.307Z,15.60
2023-05-15T21:58:29.938Z,15.55
2023-05-15T22:01:00.157Z,15.88
2023-05-15T22:03:31.045Z,15.39
2023-05-15T22:05:59.981Z,15.46
2023-05-15T22:08:29.588Z,15.75
2023-05-15T22:10:58.220Z,15.30
2023-05-15T22:13:26.514Z,15.27
2023-05-15T22:15:55.123Z,15.06
2023-05-15T22:18:25.082Z,15.29
2023-05-15T22:20:55.216Z,14.94
2023-05-15T22:23:23.505Z,15.02
2023-05-15T22:25:52.192Z,15.07
2023-05-15T22:28:21.180Z,15.09
2023-05-15T22:30:49.601Z,15.09
2023-05-15T22:33:17.932Z,14.98
2023-05-15T22:35:48.055Z,15.40
2023-05-15T22:38:16.442Z,14.91
2023-05-15T22:40:45.554Z,14.82
2023-05-15T22:43:13.926Z,14.87
2023-05-15T22:45:42.465Z,14.78
2023-05-15T22:48:10.767Z,14.84
2023-05-15T22:50:39.501Z,14.84
2023-05-15T22:53:09.273Z,15.15
2023-05-15T22:55:37.846Z,14.78
2023-05-15T22:58:06.094Z,14.68
2023-05-15T23:00:34.705Z,14.63
2023-05-15T23:03:03.034Z,14.79
2023-05-15T23:05:33.752Z,14.57
2023-05-15T23:08:02.316Z,14.73
2023-05-15T23:10:32.365Z,14.99
2023-05-15T23:13:00.584Z,14.69
2023-05-15T23:15:29.260Z,14.63
2023-05-15T23:17:57.744Z,14.64
2023-05-15T23:20:26.473Z,14.56
2023-05-15T23:22:55.270Z,14.61
2023-05-15T23:25:23.957Z,14.58
2023-05-15T23:27:53.722Z,14.88
2023-05-15T23:30:22.369Z,14.66
2023-05-15T23:32:51.139Z,14.55
2023-05-15T23:35:19.685Z,14.60
2023-05-15T23:37:48.212Z,14.53
2023-05-15T23:40:17.080Z,14.60
2023-05-15T23:42:45.764Z,14.49
2023-05-15T23:45:16.302Z,15.01
2023-05-15T23:47:46.705Z,14.60
2023-05-15T23:50:15.386Z,14.61
2023-05-15T23:52:43.526Z,14.66
2023-05-15T23:55:13.311Z,14.71
2023-05-15T23:57:41.779Z,14.59
